Brevator, Minnesota
Current Conditions -  °F | °C
As of 12:55 PM on Friday 31 Oct 2014 (Local Time) from KDLH Reporting Station
Few Clouds Few Clouds  
Wind Chill: 30°   Ceiling: Unl
Heat Index: 35°   Visibility: 10mi
Dew Point: 17°   Wind: 6mph
Humidity: 48%   Direction: 350°N
Pressure: 30.5"   Gusts: NA
Location:  46.8859°N, 92.4258°W
Report Text: KDLH 311755Z 35005KT 10SM FEW025 02/M08 A3050 RMK AO2 SLP350 T00171083 10017 21039 58007 $
Loading
Personal Weather Stations






























Interactive Weather Map
Tropical Storm Tracking
New forecast layout! Learn more

10-Day Weather Forecast

Advertisements
Track Severe Weather on mobile